Terminal Aerodrome Forecast
Issued by NWS Newport/Morehead City, NC

Home | Current Version | Previous Version | Graphics & Text | Print | Product List | Glossary On
Versions: 1 2 3 4 5 6 7 8 9 10 11 12 13 14 15
000
FTUS42 KMHX 271900 AAA
TAFEWN
TAF AMD
KEWN 271958Z 2720/2818 33010G15KT P6SM OVC025
     FM272200 33008G15KT P6SM OVC035
     FM280000 34006KT P6SM SCT040
     FM281400 34010G17KT P6SM SKC=

USA.gov is the U.S. government's official web portal to all federal, state and local government web resources and services.